Latest Weather Observations for Bunbury

IDW60801

Issued at 2:23 am WST Sunday 21 July 2019 (issued every 10 minutes, with the page automatically refreshed every 10 minutes)

About weather observations | Map of weather stations | Latest weather observations for WA | Other Formats
Station Details ID: 009965 Name: BUNBURY Lat: -33.36 Lon: 115.64 Height: 5.2 m
Data from the previous 72 hours. | See also: Recent months at Bunbury
Date/Time
WST
Temp
°C
App
Temp
°C
Dew
Point
°C
Rel
Hum
%
Delta-T
°C
Wind Press
QNH
hPa
Press
MSL
hPa
Rain since
9am
mm
Dir  Spd
km/h
Gust
km/h
Spd
kts
Gust
kts
21/02:00am 16.3 12.7 10.6 69 3.0 WSW 20 35 11 19 1017.1 1017.1 4.0
21/01:30am 16.2 11.7 8.7 61 3.8 WSW 22 41 12 22 1017.2 1017.2 4.0
21/01:00am 16.0 11.7 9.2 64 3.5 WSW 22 35 12 19 1017.5 1017.5 4.0
21/12:30am 15.6 12.6 12.0 79 2.0 WSW 19 33 10 18 1017.5 1017.5 4.0
21/12:00am 15.6 13.6 11.4 76 2.3 WSW 13 19 7 10 1017.4 1017.4 4.0
 
Date/Time
WST
Temp
°C
App
Temp
°C
Dew
Point
°C
Rel
Hum
%
Delta-T
°C
Wind Press
QNH
hPa
Press
MSL
hPa
Rain since
9am
mm
Dir  Spd
km/h
Gust
km/h
Spd
kts
Gust
kts
20/11:30pm 15.2 12.0 11.8 80 1.8 WSW 20 33 11 18 1017.9 1017.9 4.0
20/11:00pm 15.1 12.2 12.2 83 1.6 WSW 19 28 10 15 1017.9 1017.9 4.0
20/10:30pm 15.4 12.8 12.0 80 1.8 WSW 17 26 9 14 1017.9 1017.9 4.0
20/10:00pm 15.5 12.8 11.7 78 2.0 WSW 17 28 9 15 1018.0 1018.0 4.0
20/09:30pm 14.8 13.3 13.0 89 1.0 WSW 13 19 7 10 1018.0 1018.0 4.0
20/09:00pm 14.4 13.6 13.0 91 0.8 SW 9 15 5 8 1018.2 1018.2 4.0
20/08:30pm 14.5 12.0 13.4 93 0.6 W 19 30 10 16 1018.1 1018.1 4.0
20/08:00pm 14.5 11.9 13.2 92 0.7 W 19 32 10 17 1018.1 1018.1 3.8
20/07:30pm 14.5 11.8 13.4 93 0.6 WSW 20 35 11 19 1018.0 1018.0 3.8
20/07:00pm 15.0 12.8 13.2 89 1.0 W 17 32 9 17 1017.9 1017.9 2.4
20/06:30pm 15.0 12.8 13.2 89 1.0 W 17 24 9 13 1017.7 1017.7 1.6
20/06:00pm 14.9 12.5 12.6 86 1.3 W 17 28 9 15 1017.7 1017.7 1.2
20/05:30pm 14.0 11.2 12.7 92 0.7 W 19 28 10 15 1017.6 1017.6 1.0
20/05:00pm 15.9 12.1 11.1 73 2.6 W 22 35 12 19 1017.2 1017.2 0.2
20/04:30pm 15.6 14.3 12.5 82 1.7 WNW 11 17 6 9 1017.1 1017.1 0.2
20/04:00pm 14.9 11.6 11.5 80 1.8 W 20 37 11 20 1017.7 1017.7 0.2
20/03:30pm 16.4 12.8 9.8 65 3.5 W 19 28 10 15 1017.3 1017.3 0.2
20/03:00pm 16.7 13.7 10.5 67 3.3 W 17 28 9 15 1017.1 1017.1 0.2
20/02:30pm 16.4 13.4 10.7 69 3.0 W 17 30 9 16 1017.2 1017.2 0.2
20/02:00pm 14.6 11.3 11.6 82 1.6 W 20 33 11 18 1017.1 1017.1 0.2
20/01:45pm 14.4 9.6 11.6 83 1.5 W 28 50 15 27 1017.3 1017.3 0.0
20/01:30pm 15.9 12.3 10.0 68 3.1 W 19 32 10 17 1017.2 1017.2 0.0
20/01:00pm 16.2 11.5 9.2 63 3.6 WSW 24 37 13 20 1017.3 1017.3 0.0
20/12:30pm 16.0 12.2 9.0 63 3.6 WSW 19 28 10 15 1017.5 1017.5 0.0
20/12:00pm 15.5 10.5 8.0 61 3.8 W 24 39 13 21 1017.6 1017.6 0.0
20/11:30am 16.2 12.4 8.9 62 3.7 WSW 19 32 10 17 1017.7 1017.7 0.0
20/11:00am 15.3 10.4 8.3 63 3.5 WSW 24 39 13 21 1017.8 1017.8 0.0
20/10:30am 14.4 11.5 9.6 73 2.5 WSW 15 24 8 13 1017.6 1017.6 0.0
20/10:00am 14.1 10.3 9.1 72 2.5 SW 19 30 10 16 1017.5 1017.5 0.0
20/09:30am 13.3 10.7 9.2 76 2.1 WSW 13 24 7 13 1017.1 1017.1 0.0
20/09:00am 11.8 11.0 9.7 87 1.1 SW 4 7 2 4 1016.9 1016.9 12.4
20/08:30am 11.7 9.5 8.0 78 1.8 S 9 13 5 7 1016.5 1016.5 11.4
20/08:00am 11.6 9.1 8.3 80 1.6 SW 11 20 6 11 1015.6 1015.5 11.4
20/07:49am 11.2 8.1 8.8 85 1.2 WSW 15 24 8 13 1015.5 1015.4 11.4
20/07:30am 6.2 4.4 5.6 96 0.3 SSW 4 7 2 4 1015.1 1015.0 11.2
20/07:00am 5.8 4.7 5.1 95 0.3 CALM 0 0 0 0 1014.4 1014.3 11.2
20/06:30am 6.2 5.1 5.2 93 0.4 CALM 0 0 0 0 1013.7 1013.7 11.2
20/06:00am 7.1 6.1 5.4 89 0.8 CALM 0 2 0 1 1013.4 1013.4 11.2
20/05:30am 8.8 6.9 6.9 88 0.9 SSW 6 7 3 4 1013.0 1013.0 11.2
20/05:00am 9.2 7.7 6.8 85 1.1 SSW 4 6 2 3 1012.6 1012.6 11.2
20/04:30am 10.0 8.1 7.4 84 1.2 S 7 11 4 6 1012.0 1012.0 11.2
20/04:00am 11.2 7.7 7.1 76 2.0 SW 15 22 8 12 1011.8 1011.8 11.2
20/03:30am 10.3 8.2 8.2 87 1.0 SW 9 20 5 11 1011.6 1011.6 11.2
20/03:00am 9.1 7.3 8.0 93 0.5 SW 7 9 4 5 1011.2 1011.2 11.2
20/02:30am 8.7 7.2 8.3 97 0.2 SW 6 11 3 6 1011.1 1011.1 11.2
20/02:00am 6.6 5.7 5.9 95 0.3 CALM 0 0 0 0 1011.0 1011.0 11.0
20/01:30am 7.6 6.8 6.5 93 0.5 CALM 0 0 0 0 1010.3 1010.3 11.0
20/01:00am 8.6 7.6 7.2 91 0.7 S 2 6 1 3 1009.8 1009.8 11.0
20/12:30am 9.1 5.6 7.4 89 0.8 SSW 15 20 8 11 1010.2 1010.2 10.6
20/12:00am 8.5 7.4 7.1 91 0.7 S 2 6 1 3 1009.1 1009.1 10.0
 
Date/Time
WST
Temp
°C
App
Temp
°C
Dew
Point
°C
Rel
Hum
%
Delta-T
°C
Wind Press
QNH
hPa
Press
MSL
hPa
Rain since
9am
mm
Dir  Spd
km/h
Gust
km/h
Spd
kts
Gust
kts
19/11:30pm 9.4 6.8 7.7 89 0.8 S 11 20 6 11 1009.0 1009.0 10.0
19/11:00pm 10.0 6.8 8.6 91 0.7 SSW 15 20 8 11 1008.7 1008.7 9.8
19/10:30pm 8.8 7.1 8.2 96 0.3 ESE 7 9 4 5 1007.9 1007.9 9.8
19/10:00pm 9.1 8.3 8.2 94 0.4 E 2 4 1 2 1008.0 1008.0 9.8
19/09:30pm 10.1 8.6 9.2 94 0.4 SSE 7 9 4 5 1007.7 1007.7 9.8
19/09:00pm 10.2 8.8 9.0 92 0.6 S 6 7 3 4 1007.5 1007.5 9.8
19/08:30pm 10.6 6.7 9.4 92 0.6 SSW 20 32 11 17 1007.6 1007.6 9.4
19/08:00pm 11.1 9.7 9.7 91 0.7 S 7 13 4 7 1006.6 1006.6 6.4
19/07:30pm 11.4 7.2 9.7 89 0.9 SSW 22 35 12 19 1006.7 1006.7 6.0
19/07:00pm 12.8 7.4 9.6 81 1.6 SW 28 52 15 28 1006.1 1006.1 5.4
19/06:30pm 12.8 6.3 10.5 86 1.2 WSW 35 59 19 32 1005.4 1005.4 5.4
19/06:05pm 12.6 7.3 10.0 84 1.3 WSW 28 46 15 25 1005.1 1005.1 5.4
19/06:00pm 12.4 6.1 9.8 84 1.3 WSW 33 46 18 25 1005.0 1005.0 5.2
19/05:30pm 13.5 8.2 11.2 86 1.2 WSW 30 50 16 27 1004.4 1004.4 5.2
19/05:18pm 14.2 9.5 12.1 87 1.1 WSW 28 50 15 27 1003.8 1003.8 5.0
19/05:00pm 15.1 12.1 12.6 85 1.4 WSW 20 33 11 18 1003.2 1003.2 5.0
19/04:30pm 16.9 12.0 10.1 64 3.6 WNW 26 46 14 25 1003.0 1003.0 4.8
19/04:00pm 16.9 11.4 10.5 66 3.4 W 30 46 16 25 1003.2 1003.2 4.8
19/03:37pm 16.9 12.3 12.4 75 2.5 W 28 46 15 25 1003.1 1003.1 4.8
19/03:30pm 16.8 12.4 12.9 78 2.2 W 28 43 15 23 1003.0 1003.0 4.8
19/03:00pm 15.6 11.9 13.8 89 1.0 WNW 26 41 14 22 1003.0 1003.0 4.8
19/02:30pm 15.0 9.4 13.2 89 1.0 WNW 35 65 19 35 1003.4 1003.4 3.8
19/02:17pm 15.8 9.6 13.8 88 1.1 NW 39 70 21 38 1003.3 1003.3 3.4
19/02:16pm 15.7 9.5 13.7 88 1.1 NW 39 70 21 38 1003.2 1003.2 3.4
19/02:01pm 15.9 11.1 14.6 92 0.7 NNW 33 56 18 30 1003.4 1003.4 2.8
19/02:00pm 15.9 11.0 14.4 91 0.9 NNW 33 50 18 27 1003.4 1003.4 2.6
19/01:30pm 15.7 11.5 14.6 93 0.6 NW 30 50 16 27 1003.7 1003.7 1.8
19/01:18pm 15.9 11.0 13.7 87 1.2 NNW 32 56 17 30 1003.9 1003.9 1.2
19/01:00pm 17.6 13.8 13.7 78 2.2 NNW 26 39 14 21 1004.0 1004.0 0.2
19/12:30pm 17.7 13.7 13.0 74 2.6 NNW 26 37 14 20 1004.9 1004.9 0.0
19/12:00pm 18.7 15.6 13.3 71 3.1 NNW 22 35 12 19 1005.8 1005.8 0.0
19/11:30am 18.4 15.6 13.1 71 3.0 NNW 20 35 11 19 1006.8 1006.8 0.0
19/11:00am 18.9 16.1 13.3 70 3.2 NW 20 30 11 16 1007.7 1007.7 0.0
19/10:30am 18.4 16.0 12.6 69 3.2 NW 17 24 9 13 1008.0 1008.0 0.0
19/10:00am 18.0 15.8 12.0 68 3.3 WNW 15 22 8 12 1008.6 1008.6 0.0
19/09:30am 17.5 14.7 11.3 67 3.4 WNW 17 22 9 12 1009.0 1009.0 0.0
19/09:00am 17.1 14.3 11.4 69 3.1 WNW 17 28 9 15 1009.4 1009.4 2.8
19/08:30am 16.1 12.6 10.2 68 3.1 W 19 28 10 15 1009.7 1009.7 2.8
19/08:00am 16.2 12.7 10.1 67 3.2 WNW 19 30 10 16 1009.8 1009.8 2.8
19/07:30am 16.1 13.0 11.5 74 2.5 WNW 19 28 10 15 1009.8 1009.8 2.8
19/07:00am 15.6 14.0 12.7 83 1.6 W 13 20 7 11 1010.0 1010.0 2.8
19/06:30am 15.6 13.1 12.2 80 1.9 WNW 17 30 9 16 1010.1 1010.1 2.8
19/06:00am 15.4 12.1 12.7 84 1.5 W 22 33 12 18 1010.2 1010.2 2.8
19/05:30am 15.8 12.9 12.2 79 2.0 W 19 28 10 15 1010.2 1010.2 2.8
19/05:00am 16.2 12.8 11.4 73 2.6 WNW 20 32 11 17 1010.2 1010.2 2.8
19/04:30am 16.1 13.2 12.3 78 2.1 W 19 30 10 16 1010.5 1010.5 2.8
19/04:00am 16.3 14.2 13.6 84 1.5 W 17 26 9 14 1010.8 1010.8 2.8
19/03:30am 15.6 15.4 13.6 88 1.1 NW 7 13 4 7 1011.0 1011.0 2.8
19/03:00am 15.3 14.3 13.5 89 1.0 WNW 11 17 6 9 1011.6 1011.6 2.8
19/02:30am 15.9 15.9 13.6 86 1.3 W 6 9 3 5 1011.9 1011.9 0.0
19/02:00am 16.2 15.6 13.5 84 1.5 NW 9 13 5 7 1012.4 1012.4 0.0
19/01:30am 16.1 15.4 13.2 83 1.6 NW 9 15 5 8 1012.6 1012.6 0.0
19/01:00am 16.2 15.2 13.3 83 1.6 NW 11 15 6 8 1013.1 1013.1 0.0
19/12:30am 16.0 15.0 13.3 84 1.5 NW 11 19 6 10 1013.7 1013.7 0.0
19/12:00am 15.0 14.8 14.7 98 0.2 NNW 9 15 5 8 1014.2 1014.1 0.0
 
Date/Time
WST
Temp
°C
App
Temp
°C
Dew
Point
°C
Rel
Hum
%
Delta-T
°C
Wind Press
QNH
hPa
Press
MSL
hPa
Rain since
9am
mm
Dir  Spd
km/h
Gust
km/h
Spd
kts
Gust
kts
18/11:30pm 14.8 14.3 14.8 100 0.0 N 11 15 6 8 1014.6 1014.5 0.0
18/11:00pm 13.5 13.8 13.5 100 0.0 NE 4 7 2 4 1014.8 1014.7 0.0
18/10:30pm 10.6 10.0 10.4 99 0.1 ENE 4 6 2 3 1015.0 1014.9 0.0
18/10:00pm 10.9 10.7 10.6 98 0.2 E 2 4 1 2 1015.4 1015.3 0.0
18/09:30pm 10.5 9.8 10.0 97 0.3 ENE 4 6 2 3 1015.6 1015.5 0.0
18/09:00pm 12.1 12.6 11.6 97 0.3 CALM 0 0 0 0 1015.8 1015.7 0.0
18/08:30pm 12.7 13.4 12.2 97 0.3 CALM 0 0 0 0 1016.0 1015.9 0.0
18/08:00pm 12.3 12.4 11.4 94 0.5 NE 2 4 1 2 1016.2 1016.2 0.0
18/07:30pm 13.3 13.2 12.2 93 0.6 NNE 4 6 2 3 1016.3 1016.3 0.0
18/07:00pm 12.8 13.2 11.4 91 0.7 CALM 0 0 0 0 1016.5 1016.5 0.0
18/06:30pm 14.3 14.9 12.0 86 1.2 CALM 0 0 0 0 1016.5 1016.5 0.0
18/06:00pm 15.0 15.7 12.1 83 1.6 CALM 0 0 0 0 1016.5 1016.5 0.0
18/05:30pm 15.3 16.0 12.1 81 1.7 CALM 0 0 0 0 1016.7 1016.7 0.0
18/05:00pm 16.9 17.4 11.6 71 2.9 CALM 0 0 0 0 1016.8 1016.8 0.0
18/04:30pm 17.7 18.1 12.4 71 2.9 W 2 7 1 4 1016.9 1016.9 0.0
18/04:00pm 17.7 17.9 13.0 74 2.6 W 4 7 2 4 1017.1 1017.1 0.0
18/03:30pm 16.6 16.3 12.8 78 2.1 W 6 11 3 6 1017.3 1017.3 0.0
18/03:00pm 18.0 17.5 12.7 71 3.0 W 7 13 4 7 1017.4 1017.4 0.0
18/02:30pm 17.5 16.0 11.8 69 3.1 NW 11 15 6 8 1017.4 1017.4 0.0
18/02:00pm 18.8 17.7 12.1 65 3.7 WNW 9 15 5 8 1017.5 1017.5 0.0
18/01:30pm 18.4 18.3 12.2 67 3.4 E 4 7 2 4 1017.8 1017.8 0.0
18/01:00pm 18.2 18.5 13.5 74 2.7 NE 4 6 2 3 1018.4 1018.4 0.0
18/12:30pm 16.9 16.5 12.4 75 2.5 NNE 6 7 3 4 1019.1 1019.1 0.0
18/12:00pm 17.5 17.5 13.6 78 2.2 E 6 9 3 5 1019.6 1019.6 0.0
18/11:30am 16.7 16.4 13.4 81 1.9 E 7 13 4 7 1020.3 1020.3 0.0
18/11:00am 15.7 15.3 13.0 84 1.5 ESE 7 13 4 7 1020.7 1020.7 0.0
18/10:30am 14.9 13.9 12.4 85 1.4 E 9 11 5 6 1021.0 1021.0 0.0
18/10:00am 14.4 13.1 12.4 88 1.1 ESE 11 15 6 8 1021.1 1021.1 0.0
18/09:30am 14.1 13.3 12.8 92 0.7 SE 9 13 5 7 1021.1 1021.1 0.0
18/09:00am 13.8 13.0 12.9 94 0.5 SE 9 15 5 8 1021.1 1021.1 1.0
18/08:30am 13.4 12.5 12.6 95 0.4 SE 9 15 5 8 1020.9 1020.9 1.0
18/08:00am 13.2 12.9 12.7 97 0.3 S 6 7 3 4 1020.8 1020.8 1.0
18/07:30am 13.2 12.7 12.7 97 0.3 SSW 7 9 4 5 1020.6 1020.6 1.0
18/07:00am 13.4 13.0 13.1 98 0.2 SSE 7 11 4 6 1020.4 1020.4 1.0
18/06:30am 13.4 13.2 13.1 98 0.2 S 6 9 3 5 1020.3 1020.3 1.0
18/06:00am 12.5 13.2 12.2 98 0.2 CALM 0 0 0 0 1020.2 1020.2 1.0
18/05:30am 12.4 13.1 12.1 98 0.2 CALM 0 0 0 0 1019.9 1019.9 1.0
18/05:00am 12.3 12.9 12.0 98 0.2 CALM 0 0 0 0 1019.8 1019.8 1.0
18/04:30am 12.5 13.2 12.2 98 0.2 CALM 0 0 0 0 1019.6 1019.6 1.0
18/04:00am 12.3 12.9 11.8 97 0.3 CALM 0 0 0 0 1019.7 1019.7 1.0
18/03:30am 13.3 14.2 12.8 97 0.3 CALM 0 0 0 0 1019.7 1019.7 1.0
18/03:00am 13.7 13.9 13.2 97 0.3 S 4 6 2 3 1019.8 1019.8 1.0
18/02:30am 13.9 13.8 13.4 97 0.3 S 6 6 3 3 1019.8 1019.8 1.0

Other formats

Comma delimited format used in spreadsheet applications
http://www.bom.gov.au/fwo/IDW60801/IDW60801.94604.axf

JavaScript Object Notation format (JSON) in row-major order
http://www.bom.gov.au/fwo/IDW60801/IDW60801.94604.json

Data quality

Most of these data are generated automatically and are frequently updated. Quality checks on data are not normally performed. It is possible for incorrect values to appear. Refer to information at About Latest Weather Observations and please check the disclaimer before using these data.